createdAt,value
2023-12-09T00:01:30.809Z,0.05
2023-12-09T00:03:58.086Z,0.22
2023-12-09T00:06:25.390Z,0.15
2023-12-09T00:08:53.043Z,0.19
2023-12-09T00:11:20.310Z,0.07
2023-12-09T00:13:47.529Z,0.26
2023-12-09T00:16:15.115Z,0.14
2023-12-09T00:18:42.463Z,0.05
2023-12-09T00:21:09.691Z,0.29
2023-12-09T00:23:47.125Z,0.27
2023-12-09T00:26:16.370Z,0.27
2023-12-09T00:28:46.542Z,0.19
2023-12-09T00:31:14.208Z,0.09
2023-12-09T00:33:41.712Z,0.09
2023-12-09T00:36:09.305Z,0.09
2023-12-09T00:38:36.753Z,0.10
2023-12-09T00:41:04.088Z,0.03
2023-12-09T00:43:31.200Z,0.09
2023-12-09T00:45:58.449Z,0.24
2023-12-09T00:48:25.802Z,0.25
2023-12-09T00:50:53.363Z,0.12
2023-12-09T00:53:20.522Z,0.16
2023-12-09T00:55:47.819Z,0.39
2023-12-09T00:58:15.260Z,0.32
2023-12-09T01:00:42.506Z,0.25
2023-12-09T01:03:10.055Z,0.23
2023-12-09T01:05:37.411Z,0.33
2023-12-09T01:08:07.144Z,0.41
2023-12-09T01:10:34.501Z,0.34
2023-12-09T01:13:01.887Z,0.19
2023-12-09T01:15:29.071Z,0.10
2023-12-09T01:17:57.130Z,0.11
2023-12-09T01:20:25.644Z,0.09
2023-12-09T01:22:53.095Z,0.18
2023-12-09T01:25:20.652Z,0.25
2023-12-09T01:27:47.981Z,0.23
2023-12-09T01:30:15.490Z,0.22
2023-12-09T01:32:42.841Z,0.25
2023-12-09T01:35:11.178Z,0.20
2023-12-09T01:37:38.348Z,0.06
2023-12-09T01:40:05.850Z,0.09
2023-12-09T01:42:33.022Z,0.10
2023-12-09T01:45:06.032Z,0.21
2023-12-09T01:47:33.483Z,0.19
2023-12-09T01:50:07.704Z,0.20
2023-12-09T01:52:35.504Z,0.25
2023-12-09T01:55:06.910Z,0.23
2023-12-09T01:57:34.822Z,0.27
2023-12-09T02:00:06.925Z,0.14
2023-12-09T02:02:34.171Z,0.18
2023-12-09T02:05:06.249Z,0.14
2023-12-09T02:07:35.340Z,0.34
2023-12-09T02:10:07.164Z,0.45
2023-12-09T02:13:01.785Z,0.47
2023-12-09T02:15:46.339Z,0.44
2023-12-09T02:18:13.691Z,0.47
2023-12-09T02:20:40.959Z,0.47
2023-12-09T02:23:09.742Z,0.29
2023-12-09T02:25:39.234Z,0.22
2023-12-09T02:28:19.155Z,0.27
2023-12-09T02:30:49.124Z,0.32
2023-12-09T02:33:18.068Z,0.23
2023-12-09T02:35:47.703Z,0.37
2023-12-09T02:38:17.491Z,0.20
2023-12-09T02:40:45.903Z,0.21
2023-12-09T02:43:14.118Z,0.33
2023-12-09T02:45:41.663Z,0.36
2023-12-09T02:48:08.953Z,0.37
2023-12-09T02:50:37.421Z,0.28
2023-12-09T02:53:05.060Z,0.25
2023-12-09T02:55:32.285Z,0.23
2023-12-09T02:57:59.394Z,0.12
2023-12-09T03:00:26.655Z,0.21
2023-12-09T03:02:53.927Z,0.20
2023-12-09T03:05:21.312Z,0.14
2023-12-09T03:07:48.573Z,0.22
2023-12-09T03:10:15.770Z,0.22
2023-12-09T03:12:42.917Z,0.29
2023-12-09T03:15:10.820Z,0.38
2023-12-09T03:17:38.438Z,0.50
2023-12-09T03:20:10.045Z,0.50
2023-12-09T03:22:37.109Z,0.35
2023-12-09T03:25:05.229Z,0.32
2023-12-09T03:27:32.770Z,0.28
2023-12-09T03:30:05.310Z,0.47
2023-12-09T03:32:32.850Z,0.35
2023-12-09T03:35:05.012Z,0.27
2023-12-09T03:37:32.233Z,0.27
2023-12-09T03:40:05.386Z,0.22
2023-12-09T03:42:32.785Z,0.19
2023-12-09T03:45:06.446Z,0.23
2023-12-09T03:47:35.650Z,0.16
2023-12-09T03:50:05.627Z,0.19
2023-12-09T03:52:32.791Z,0.16
2023-12-09T03:55:05.187Z,0.17
2023-12-09T03:57:32.655Z,0.24
2023-12-09T04:00:06.579Z,0.37
2023-12-09T04:02:34.297Z,0.55
2023-12-09T04:05:07.370Z,0.40
2023-12-09T04:07:34.542Z,0.29
2023-12-09T04:10:05.527Z,0.32
2023-12-09T04:12:32.847Z,0.31
2023-12-09T04:15:05.979Z,0.48
2023-12-09T04:17:33.179Z,0.48
2023-12-09T04:20:10.330Z,0.39
2023-12-09T04:22:39.179Z,0.35
2023-12-09T04:25:07.591Z,0.37
2023-12-09T04:27:35.559Z,0.37
2023-12-09T04:30:06.843Z,0.32
2023-12-09T04:32:34.112Z,0.50
2023-12-09T04:35:06.129Z,0.40
2023-12-09T04:37:33.710Z,0.34
2023-12-09T04:40:06.370Z,0.28
2023-12-09T04:42:34.713Z,0.37
2023-12-09T04:45:07.354Z,0.35
2023-12-09T04:47:35.286Z,0.29
2023-12-09T04:50:09.157Z,0.36
2023-12-09T04:52:38.810Z,0.32
2023-12-09T04:55:06.897Z,0.23
2023-12-09T04:57:34.115Z,0.24
2023-12-09T05:00:06.651Z,0.32
2023-12-09T05:02:34.082Z,0.52
2023-12-09T05:05:05.980Z,0.36
2023-12-09T05:07:33.101Z,0.34
2023-12-09T05:10:05.396Z,0.34
2023-12-09T05:12:32.979Z,0.44
2023-12-09T05:15:05.461Z,0.40
2023-12-09T05:17:33.496Z,0.60
2023-12-09T05:20:06.284Z,0.50
2023-12-09T05:22:33.418Z,0.49
2023-12-09T05:25:06.576Z,0.45
2023-12-09T05:27:34.021Z,0.61
2023-12-09T05:30:05.295Z,0.47
2023-12-09T05:32:33.110Z,0.40
2023-12-09T05:35:05.400Z,0.23
2023-12-09T05:37:32.798Z,0.40
2023-12-09T05:40:05.903Z,0.32
2023-12-09T05:42:33.513Z,0.43
2023-12-09T05:45:04.372Z,0.56
2023-12-09T05:47:32.126Z,0.65
2023-12-09T05:50:02.595Z,0.49
2023-12-09T05:52:31.154Z,0.56
2023-12-09T05:54:58.508Z,0.60
2023-12-09T05:57:31.281Z,0.44
2023-12-09T05:59:58.425Z,0.43
2023-12-09T06:02:32.247Z,0.40
2023-12-09T06:05:05.438Z,0.40
2023-12-09T06:07:32.603Z,0.35
2023-12-09T06:10:06.302Z,0.41
2023-12-09T06:12:34.036Z,0.45
2023-12-09T06:15:05.294Z,0.53
2023-12-09T06:17:35.217Z,0.46
2023-12-09T06:20:08.277Z,0.48
2023-12-09T06:22:38.486Z,0.25
2023-12-09T06:25:05.780Z,0.44
2023-12-09T06:27:32.888Z,0.48
2023-12-09T06:30:05.459Z,0.37
2023-12-09T06:32:32.960Z,0.28
2023-12-09T06:35:05.532Z,0.38
2023-12-09T06:37:33.040Z,0.40
2023-12-09T06:40:05.610Z,0.33
2023-12-09T06:42:33.679Z,0.42
2023-12-09T06:45:05.337Z,0.40
2023-12-09T06:47:33.861Z,0.38
2023-12-09T06:50:05.098Z,0.42
2023-12-09T06:52:32.248Z,0.44
2023-12-09T06:55:02.673Z,0.45
2023-12-09T06:57:31.488Z,0.35
2023-12-09T07:00:09.631Z,0.20
2023-12-09T07:02:48.625Z,0.23
2023-12-09T07:05:24.191Z,0.27
2023-12-09T07:07:52.028Z,0.27
2023-12-09T07:10:19.512Z,0.36
2023-12-09T07:12:46.915Z,0.39
2023-12-09T07:15:14.214Z,0.39
2023-12-09T07:17:41.456Z,0.42
2023-12-09T07:20:08.860Z,0.51
2023-12-09T07:22:38.799Z,0.55
2023-12-09T07:25:06.285Z,0.39
2023-12-09T07:27:33.695Z,0.51
2023-12-09T07:30:06.795Z,0.55
2023-12-09T07:32:34.348Z,0.50
2023-12-09T07:35:05.973Z,0.63
2023-12-09T07:37:33.173Z,0.59
2023-12-09T07:40:06.322Z,0.48
2023-12-09T07:42:36.522Z,0.41
2023-12-09T07:45:05.209Z,0.39
2023-12-09T07:47:35.004Z,0.33
2023-12-09T07:50:05.068Z,0.34
2023-12-09T07:52:32.818Z,0.50
2023-12-09T07:55:05.619Z,0.51
2023-12-09T07:57:32.928Z,0.51
2023-12-09T08:00:06.962Z,0.55
2023-12-09T08:02:34.161Z,0.46
2023-12-09T08:05:05.885Z,0.48
2023-12-09T08:07:33.020Z,0.61
2023-12-09T08:10:05.765Z,0.76
2023-12-09T08:12:33.210Z,0.73
2023-12-09T08:15:03.110Z,0.57
2023-12-09T08:17:31.246Z,0.53
2023-12-09T08:19:58.427Z,0.46
2023-12-09T08:22:31.427Z,0.50
2023-12-09T08:24:58.645Z,0.53
2023-12-09T08:27:31.188Z,0.52
2023-12-09T08:29:58.296Z,0.52
2023-12-09T08:32:31.532Z,0.62
2023-12-09T08:35:07.041Z,0.55
2023-12-09T08:37:38.214Z,0.59
2023-12-09T08:40:14.063Z,0.63
2023-12-09T08:42:46.312Z,0.70
2023-12-09T08:45:15.834Z,0.68
2023-12-09T08:47:45.493Z,0.79
2023-12-09T08:50:22.661Z,0.88
2023-12-09T08:52:53.956Z,0.63
2023-12-09T08:55:21.543Z,0.61
2023-12-09T08:57:53.758Z,0.71
2023-12-09T09:00:24.943Z,0.69
2023-12-09T09:02:57.282Z,0.74
2023-12-09T09:05:26.455Z,0.77
2023-12-09T09:07:53.777Z,0.75
2023-12-09T09:10:21.696Z,0.61
2023-12-09T09:12:48.929Z,0.72
2023-12-09T09:15:17.691Z,0.78
2023-12-09T09:17:44.909Z,0.88
2023-12-09T09:20:12.298Z,0.86
2023-12-09T09:22:40.766Z,0.96
2023-12-09T09:25:09.317Z,0.93
2023-12-09T09:27:37.337Z,0.79
2023-12-09T09:30:05.402Z,0.77
2023-12-09T09:32:32.864Z,0.79
2023-12-09T09:35:04.107Z,0.89
2023-12-09T09:37:31.591Z,0.80
2023-12-09T09:39:58.968Z,0.80
2023-12-09T09:42:33.955Z,0.73
2023-12-09T09:45:19.845Z,0.82
2023-12-09T09:47:49.585Z,0.69
2023-12-09T09:50:25.409Z,0.78
2023-12-09T09:52:54.291Z,0.79
2023-12-09T09:55:23.731Z,0.79
2023-12-09T09:57:54.258Z,0.81
2023-12-09T10:00:22.940Z,0.79
2023-12-09T10:02:54.483Z,0.95
2023-12-09T10:05:23.613Z,0.90
2023-12-09T10:07:52.320Z,0.92
2023-12-09T10:10:20.866Z,0.91
2023-12-09T10:12:48.270Z,0.94
2023-12-09T10:15:15.668Z,0.96
2023-12-09T10:17:42.989Z,0.97
2023-12-09T10:20:11.975Z,1.04
2023-12-09T10:22:40.926Z,1.10
2023-12-09T10:25:09.034Z,1.14
2023-12-09T10:27:36.538Z,1.10
2023-12-09T10:30:05.368Z,1.17
2023-12-09T10:32:34.936Z,1.28
2023-12-09T10:35:06.463Z,1.24
2023-12-09T10:37:34.212Z,1.11
2023-12-09T10:40:09.316Z,1.24
2023-12-09T10:42:39.935Z,1.20
2023-12-09T10:45:09.204Z,1.38
2023-12-09T10:47:36.923Z,1.36
2023-12-09T10:50:06.210Z,1.48
2023-12-09T10:52:35.832Z,1.32
2023-12-09T10:55:05.614Z,1.26
2023-12-09T10:57:34.754Z,1.42
2023-12-09T11:00:12.096Z,1.30
2023-12-09T11:02:44.720Z,1.30
2023-12-09T11:05:13.015Z,1.31
2023-12-09T11:07:41.869Z,1.28
2023-12-09T11:10:11.452Z,1.33
2023-12-09T11:12:38.913Z,1.51
2023-12-09T11:15:14.910Z,1.40
2023-12-09T11:17:45.502Z,1.27
2023-12-09T11:20:17.277Z,1.38
2023-12-09T11:22:45.974Z,1.43
2023-12-09T11:25:26.850Z,1.33
2023-12-09T11:27:54.822Z,1.44
2023-12-09T11:30:57.732Z,1.52
2023-12-09T11:33:25.473Z,1.30
2023-12-09T11:35:56.600Z,1.30
2023-12-09T11:38:25.025Z,1.39
2023-12-09T11:40:53.154Z,1.42
2023-12-09T11:43:20.664Z,1.44
2023-12-09T11:45:48.250Z,1.56
2023-12-09T11:48:16.760Z,1.72
2023-12-09T11:50:44.057Z,1.59
2023-12-09T11:53:11.208Z,1.48
2023-12-09T11:55:38.894Z,1.56
2023-12-09T11:58:06.024Z,1.49
2023-12-09T12:00:33.286Z,1.58
2023-12-09T12:03:00.831Z,1.52
2023-12-09T12:05:28.011Z,1.59
2023-12-09T12:07:55.661Z,1.57
2023-12-09T12:10:23.515Z,1.73
2023-12-09T12:12:51.047Z,1.90
2023-12-09T12:15:18.756Z,1.73
2023-12-09T12:17:46.180Z,1.67
2023-12-09T12:20:16.470Z,1.60
2023-12-09T12:22:43.666Z,1.67
2023-12-09T12:25:11.389Z,1.65
2023-12-09T12:27:46.073Z,1.69
2023-12-09T12:30:16.688Z,1.75
2023-12-09T12:32:57.592Z,1.73
2023-12-09T12:35:27.427Z,1.80
2023-12-09T12:37:58.802Z,1.88
2023-12-09T12:40:28.080Z,2.05
2023-12-09T12:42:56.397Z,2.00
2023-12-09T12:45:27.784Z,2.04
2023-12-09T12:47:56.031Z,2.10
2023-12-09T12:50:23.532Z,2.04
2023-12-09T12:52:50.697Z,2.01
2023-12-09T12:55:21.058Z,2.27
2023-12-09T12:57:48.806Z,2.21
2023-12-09T13:00:18.997Z,2.33
2023-12-09T13:02:46.576Z,2.20
2023-12-09T13:05:13.849Z,2.15
2023-12-09T13:07:41.365Z,2.09
2023-12-09T13:10:08.698Z,2.10
2023-12-09T13:12:36.742Z,2.21
2023-12-09T13:15:06.416Z,2.13
2023-12-09T13:17:33.833Z,2.19
2023-12-09T13:20:05.527Z,1.98
2023-12-09T13:22:33.011Z,1.97
2023-12-09T13:25:06.823Z,2.17
2023-12-09T13:27:34.986Z,2.21
2023-12-09T13:30:08.364Z,2.22
2023-12-09T13:32:36.363Z,2.21
2023-12-09T13:35:07.567Z,2.14
2023-12-09T13:37:35.631Z,2.21
2023-12-09T13:40:06.385Z,2.20
2023-12-09T13:42:34.211Z,2.20
2023-12-09T13:45:06.124Z,2.08
2023-12-09T13:47:33.832Z,2.20
2023-12-09T13:50:06.565Z,2.10
2023-12-09T13:52:35.577Z,2.21
2023-12-09T13:55:06.323Z,2.15
2023-12-09T13:57:34.167Z,2.24
2023-12-09T14:00:05.311Z,2.26
2023-12-09T14:02:32.850Z,2.28
2023-12-09T14:05:05.420Z,2.28
2023-12-09T14:07:32.840Z,2.29
2023-12-09T14:10:02.599Z,2.23
2023-12-09T14:12:31.418Z,2.27
2023-12-09T14:14:59.487Z,2.22
2023-12-09T14:17:32.823Z,2.16
2023-12-09T14:20:07.217Z,2.14
2023-12-09T14:22:34.883Z,2.19
2023-12-09T14:25:06.103Z,2.15
2023-12-09T14:27:35.382Z,2.19
2023-12-09T14:30:06.942Z,2.23
2023-12-09T14:32:34.541Z,2.28
2023-12-09T14:35:06.627Z,2.25
2023-12-09T14:37:34.946Z,2.19
2023-12-09T14:40:06.862Z,2.31
2023-12-09T14:42:34.205Z,2.17
2023-12-09T14:45:06.034Z,2.33
2023-12-09T14:47:33.498Z,2.32
2023-12-09T14:50:05.515Z,2.27
2023-12-09T14:52:32.896Z,2.24
2023-12-09T14:55:03.154Z,2.17
2023-12-09T14:57:31.149Z,2.20
2023-12-09T14:59:58.776Z,2.13
2023-12-09T15:02:29.185Z,2.28
2023-12-09T15:04:56.506Z,2.34
2023-12-09T15:07:23.989Z,2.25
2023-12-09T15:09:54.306Z,2.12
2023-12-09T15:12:21.425Z,2.24
2023-12-09T15:14:50.699Z,2.21
2023-12-09T15:17:18.394Z,2.22
2023-12-09T15:19:45.780Z,2.08
2023-12-09T15:22:13.807Z,2.05
2023-12-09T15:24:41.337Z,2.15
2023-12-09T15:27:08.770Z,2.09
2023-12-09T15:29:36.122Z,2.21
2023-12-09T15:32:03.872Z,2.13
2023-12-09T15:34:31.982Z,1.97
2023-12-09T15:37:00.222Z,1.91
2023-12-09T15:39:27.765Z,2.05
2023-12-09T15:41:55.550Z,2.08
2023-12-09T15:44:22.941Z,2.04
2023-12-09T15:46:50.711Z,2.01
2023-12-09T15:49:25.787Z,2.04
2023-12-09T15:51:53.439Z,2.03
2023-12-09T15:54:22.745Z,2.02
2023-12-09T15:56:50.583Z,1.93
2023-12-09T15:59:18.643Z,1.85
2023-12-09T16:01:48.321Z,1.87
2023-12-09T16:04:15.809Z,1.74
2023-12-09T16:06:43.326Z,1.80
2023-12-09T16:09:10.592Z,1.78
2023-12-09T16:11:37.774Z,1.77
2023-12-09T16:14:04.952Z,1.66
2023-12-09T16:16:34.844Z,1.73
2023-12-09T16:19:02.471Z,1.80
2023-12-09T16:21:29.908Z,1.72
2023-12-09T16:23:57.070Z,1.70
2023-12-09T16:26:24.569Z,1.66
2023-12-09T16:28:51.767Z,1.64
2023-12-09T16:31:19.299Z,1.66
2023-12-09T16:33:46.978Z,1.68
2023-12-09T16:36:14.560Z,1.53
2023-12-09T16:38:41.889Z,1.57
2023-12-09T16:41:11.801Z,1.62
2023-12-09T16:43:39.779Z,1.68
2023-12-09T16:46:07.072Z,1.69
2023-12-09T16:48:34.566Z,1.68
2023-12-09T16:51:01.887Z,1.48
2023-12-09T16:53:29.403Z,1.44
2023-12-09T16:55:56.891Z,1.47
2023-12-09T16:58:24.077Z,1.37
2023-12-09T17:00:51.401Z,1.36
2023-12-09T17:03:19.930Z,1.35
2023-12-09T17:05:48.275Z,1.39
2023-12-09T17:08:15.700Z,1.30
2023-12-09T17:10:42.882Z,1.44
2023-12-09T17:13:10.874Z,1.52
2023-12-09T17:15:38.338Z,1.82
2023-12-09T17:18:06.068Z,1.80
2023-12-09T17:20:33.655Z,1.90
2023-12-09T17:23:01.104Z,1.97
2023-12-09T17:25:28.421Z,2.06
2023-12-09T17:27:55.540Z,2.14
2023-12-09T17:30:22.749Z,2.22
2023-12-09T17:32:50.983Z,2.27
2023-12-09T17:35:18.588Z,2.34
2023-12-09T17:37:45.833Z,2.21
2023-12-09T17:40:13.185Z,2.44
2023-12-09T17:42:40.641Z,2.40
2023-12-09T17:45:08.684Z,2.40
2023-12-09T17:47:36.202Z,2.50
2023-12-09T17:50:05.903Z,2.36
2023-12-09T17:52:35.569Z,2.33
2023-12-09T17:55:05.492Z,2.42
2023-12-09T17:57:32.732Z,2.36
2023-12-09T18:00:05.798Z,2.39
2023-12-09T18:02:33.261Z,2.24
2023-12-09T18:05:05.364Z,2.15
2023-12-09T18:07:32.720Z,2.14
2023-12-09T18:10:06.664Z,2.34
2023-12-09T18:12:37.183Z,2.34
2023-12-09T18:15:08.337Z,2.32
2023-12-09T18:17:35.691Z,2.28
2023-12-09T18:20:06.224Z,2.46
2023-12-09T18:22:33.717Z,2.50
2023-12-09T18:25:05.244Z,2.53
2023-12-09T18:27:32.729Z,2.41
2023-12-09T18:30:02.634Z,2.34
2023-12-09T18:32:37.573Z,2.39
2023-12-09T18:35:09.840Z,2.43
2023-12-09T18:37:40.817Z,1.98
2023-12-09T18:40:11.097Z,1.92
2023-12-09T18:42:38.908Z,1.76
2023-12-09T18:45:07.146Z,1.51
2023-12-09T18:47:37.814Z,1.55
2023-12-09T18:50:05.683Z,1.64
2023-12-09T18:52:33.573Z,1.33
2023-12-09T18:55:06.800Z,1.29
2023-12-09T18:57:34.151Z,1.47
2023-12-09T19:00:07.460Z,1.40
2023-12-09T19:02:34.952Z,1.37
2023-12-09T19:05:06.149Z,1.24
2023-12-09T19:07:33.665Z,1.28
2023-12-09T19:10:06.633Z,1.35
2023-12-09T19:12:34.121Z,1.40
2023-12-09T19:15:06.101Z,1.44
2023-12-09T19:17:33.633Z,1.45
2023-12-09T19:20:06.166Z,1.36
2023-12-09T19:22:33.542Z,1.42
2023-12-09T19:25:06.588Z,1.40
2023-12-09T19:27:34.106Z,1.47
2023-12-09T19:30:06.297Z,1.46
2023-12-09T19:32:33.733Z,1.43
2023-12-09T19:35:05.322Z,1.48
2023-12-09T19:37:32.812Z,1.44
2023-12-09T19:40:03.402Z,1.45
2023-12-09T19:42:31.965Z,1.92
2023-12-09T19:45:02.356Z,2.28
2023-12-09T19:47:31.269Z,2.44
2023-12-09T19:49:58.995Z,2.41
2023-12-09T19:52:31.447Z,2.17
2023-12-09T19:54:58.813Z,2.00
2023-12-09T19:57:31.660Z,1.96
2023-12-09T20:02:50.459Z,1.82
2023-12-09T20:05:19.481Z,2.01
2023-12-09T20:07:46.828Z,2.18
2023-12-09T20:10:14.100Z,2.42
2023-12-09T20:12:41.710Z,2.45
2023-12-09T20:15:11.566Z,2.48
2023-12-09T20:17:39.377Z,2.39
2023-12-09T20:20:07.670Z,2.44
2023-12-09T20:22:35.826Z,2.43
2023-12-09T20:25:05.529Z,2.50
2023-12-09T20:27:33.138Z,2.40
2023-12-09T20:30:05.588Z,2.30
2023-12-09T20:32:33.375Z,2.37
2023-12-09T20:35:05.186Z,2.44
2023-12-09T20:37:32.434Z,2.45
2023-12-09T20:40:02.637Z,2.17
2023-12-09T20:42:31.854Z,1.76
2023-12-09T20:45:05.746Z,1.85
2023-12-09T20:47:33.778Z,1.80
2023-12-09T20:50:06.257Z,1.81
2023-12-09T20:52:33.525Z,1.83
2023-12-09T20:55:07.066Z,1.84
2023-12-09T20:57:34.497Z,1.80
2023-12-09T21:00:05.351Z,1.78
2023-12-09T21:02:32.989Z,1.88
2023-12-09T21:05:05.508Z,1.87
2023-12-09T21:07:37.030Z,1.68
2023-12-09T21:10:05.541Z,1.79
2023-12-09T21:12:33.345Z,1.86
2023-12-09T21:15:06.271Z,1.66
2023-12-09T21:17:34.100Z,1.68
2023-12-09T21:20:05.151Z,1.74
2023-12-09T21:22:33.571Z,1.75
2023-12-09T21:25:05.571Z,1.67
2023-12-09T21:27:33.046Z,1.57
2023-12-09T21:30:05.177Z,1.59
2023-12-09T21:32:35.140Z,1.59
2023-12-09T21:35:06.299Z,1.63
2023-12-09T21:37:33.450Z,1.78
2023-12-09T21:40:05.313Z,1.76
2023-12-09T21:42:33.080Z,1.80
2023-12-09T21:45:05.423Z,1.86
2023-12-09T21:47:32.611Z,1.94
2023-12-09T21:50:05.256Z,2.04
2023-12-09T21:52:32.642Z,2.07
2023-12-09T21:55:05.623Z,1.99
2023-12-09T21:57:32.789Z,2.04
2023-12-09T22:00:05.220Z,1.98
2023-12-09T22:02:32.999Z,1.92
2023-12-09T22:05:05.690Z,1.85
2023-12-09T22:07:35.999Z,1.85
2023-12-09T22:10:05.835Z,1.80
2023-12-09T22:12:33.548Z,1.78
2023-12-09T22:15:05.727Z,1.80
2023-12-09T22:17:32.956Z,1.75
2023-12-09T22:20:05.812Z,1.83
2023-12-09T22:22:41.071Z,1.88
2023-12-09T22:25:13.606Z,1.98
2023-12-09T22:27:40.753Z,1.97
2023-12-09T22:30:08.979Z,2.01
2023-12-09T22:32:36.697Z,2.05
2023-12-09T22:35:06.192Z,2.04
2023-12-09T22:37:33.608Z,2.08
2023-12-09T22:40:06.413Z,2.02
2023-12-09T22:42:34.681Z,2.00
2023-12-09T22:45:07.127Z,2.03
2023-12-09T22:47:35.188Z,2.02
2023-12-09T22:50:06.231Z,1.94
2023-12-09T22:52:34.053Z,1.91
2023-12-09T22:55:06.539Z,1.91
2023-12-09T22:57:33.982Z,1.99
2023-12-09T23:00:11.269Z,1.96
2023-12-09T23:02:38.585Z,1.97
2023-12-09T23:05:09.170Z,2.07
2023-12-09T23:07:36.294Z,2.06
2023-12-09T23:10:06.423Z,2.06
2023-12-09T23:12:34.034Z,1.87
2023-12-09T23:15:05.403Z,2.00
2023-12-09T23:17:32.633Z,1.87
2023-12-09T23:20:05.283Z,1.96
2023-12-09T23:22:32.531Z,2.02
2023-12-09T23:25:04.139Z,1.88
2023-12-09T23:27:32.219Z,1.85
2023-12-09T23:29:59.983Z,1.98
2023-12-09T23:32:35.210Z,1.72
2023-12-09T23:35:05.808Z,1.89
2023-12-09T23:37:35.902Z,1.73
2023-12-09T23:40:07.987Z,1.75
2023-12-09T23:42:35.323Z,1.73
2023-12-09T23:45:05.379Z,1.63
2023-12-09T23:47:32.695Z,1.64
2023-12-09T23:50:05.288Z,1.67
2023-12-09T23:52:32.554Z,1.71
2023-12-09T23:55:05.968Z,1.64
2023-12-09T23:57:33.187Z,1.68
